sensor_id;sensor_type;location;lat;lon;timestamp;P1;durP1;ratioP1;P2;durP2;ratioP2
5040;SDS011;2539;52.568;13.364;2022-10-22T00:00:34;25.27;;;20.30;;
5040;SDS011;2539;52.568;13.364;2022-10-22T00:03:00;22.40;;;19.87;;
5040;SDS011;2539;52.568;13.364;2022-10-22T00:05:26;23.43;;;20.43;;
5040;SDS011;2539;52.568;13.364;2022-10-22T00:07:55;27.17;;;20.67;;
5040;SDS011;2539;52.568;13.364;2022-10-22T00:10:21;25.23;;;21.10;;
5040;SDS011;2539;52.568;13.364;2022-10-22T00:12:48;27.37;;;20.50;;
5040;SDS011;2539;52.568;13.364;2022-10-22T00:15:14;24.17;;;19.07;;
5040;SDS011;2539;52.568;13.364;2022-10-22T00:17:39;25.10;;;20.27;;
5040;SDS011;2539;52.568;13.364;2022-10-22T00:20:05;23.17;;;20.23;;
5040;SDS011;2539;52.568;13.364;2022-10-22T00:22:31;24.87;;;19.97;;
5040;SDS011;2539;52.568;13.364;2022-10-22T00:24:58;24.07;;;19.77;;
5040;SDS011;2539;52.568;13.364;2022-10-22T00:27:24;24.97;;;19.47;;
5040;SDS011;2539;52.568;13.364;2022-10-22T00:29:50;24.50;;;19.87;;
5040;SDS011;2539;52.568;13.364;2022-10-22T00:32:16;25.20;;;19.07;;
5040;SDS011;2539;52.568;13.364;2022-10-22T00:34:42;27.20;;;19.33;;
5040;SDS011;2539;52.568;13.364;2022-10-22T00:37:07;23.10;;;19.03;;
5040;SDS011;2539;52.568;13.364;2022-10-22T00:39:33;26.40;;;18.97;;
5040;SDS011;2539;52.568;13.364;2022-10-22T00:41:59;23.37;;;18.70;;
5040;SDS011;2539;52.568;13.364;2022-10-22T00:50:12;23.53;;;18.53;;
5040;SDS011;2539;52.568;13.364;2022-10-22T00:52:42;21.00;;;18.70;;
5040;SDS011;2539;52.568;13.364;2022-10-22T00:55:09;23.50;;;19.30;;
5040;SDS011;2539;52.568;13.364;2022-10-22T00:57:36;22.20;;;17.37;;
5040;SDS011;2539;52.568;13.364;2022-10-22T01:00:03;22.03;;;17.97;;
5040;SDS011;2539;52.568;13.364;2022-10-22T01:02:30;25.97;;;19.23;;
5040;SDS011;2539;52.568;13.364;2022-10-22T01:04:56;21.27;;;17.47;;
5040;SDS011;2539;52.568;13.364;2022-10-22T01:07:23;25.10;;;19.37;;
5040;SDS011;2539;52.568;13.364;2022-10-22T01:09:54;19.70;;;17.70;;
5040;SDS011;2539;52.568;13.364;2022-10-22T01:19:02;20.30;;;17.40;;
5040;SDS011;2539;52.568;13.364;2022-10-22T01:21:03;20.10;;;16.83;;
5040;SDS011;2539;52.568;13.364;2022-10-22T01:26:53;20.13;;;17.80;;
5040;SDS011;2539;52.568;13.364;2022-10-22T01:29:23;24.40;;;18.50;;
5040;SDS011;2539;52.568;13.364;2022-10-22T01:31:59;22.43;;;18.70;;
5040;SDS011;2539;52.568;13.364;2022-10-22T01:34:28;23.40;;;18.30;;
5040;SDS011;2539;52.568;13.364;2022-10-22T01:36:56;23.30;;;17.70;;
5040;SDS011;2539;52.568;13.364;2022-10-22T01:39:24;24.50;;;19.90;;
5040;SDS011;2539;52.568;13.364;2022-10-22T01:41:53;24.37;;;18.70;;
5040;SDS011;2539;52.568;13.364;2022-10-22T01:44:28;23.43;;;19.40;;
5040;SDS011;2539;52.568;13.364;2022-10-22T02:03:59;24.60;;;19.30;;
5040;SDS011;2539;52.568;13.364;2022-10-22T02:06:32;25.67;;;20.20;;
5040;SDS011;2539;52.568;13.364;2022-10-22T02:08:59;24.03;;;19.53;;
5040;SDS011;2539;52.568;13.364;2022-10-22T02:11:26;24.63;;;18.97;;
5040;SDS011;2539;52.568;13.364;2022-10-22T02:13:53;24.53;;;19.33;;
5040;SDS011;2539;52.568;13.364;2022-10-22T02:16:35;26.77;;;20.33;;
5040;SDS011;2539;52.568;13.364;2022-10-22T02:19:09;23.93;;;20.10;;
5040;SDS011;2539;52.568;13.364;2022-10-22T02:22:02;25.80;;;20.70;;
5040;SDS011;2539;52.568;13.364;2022-10-22T02:24:29;27.17;;;20.07;;
5040;SDS011;2539;52.568;13.364;2022-10-22T02:27:13;24.00;;;19.80;;
5040;SDS011;2539;52.568;13.364;2022-10-22T02:32:17;22.87;;;19.40;;
5040;SDS011;2539;52.568;13.364;2022-10-22T02:34:47;26.87;;;19.70;;
5040;SDS011;2539;52.568;13.364;2022-10-22T02:37:15;23.40;;;19.00;;
5040;SDS011;2539;52.568;13.364;2022-10-22T02:39:43;24.40;;;18.63;;
5040;SDS011;2539;52.568;13.364;2022-10-22T02:42:10;25.20;;;18.87;;
5040;SDS011;2539;52.568;13.364;2022-10-22T02:44:37;24.43;;;18.60;;
5040;SDS011;2539;52.568;13.364;2022-10-22T02:47:04;23.80;;;18.90;;
5040;SDS011;2539;52.568;13.364;2022-10-22T02:49:30;22.80;;;17.50;;
5040;SDS011;2539;52.568;13.364;2022-10-22T02:51:55;23.40;;;19.13;;
5040;SDS011;2539;52.568;13.364;2022-10-22T02:54:21;22.40;;;19.10;;
5040;SDS011;2539;52.568;13.364;2022-10-22T02:56:47;21.47;;;17.17;;
5040;SDS011;2539;52.568;13.364;2022-10-22T02:59:13;24.80;;;17.63;;
5040;SDS011;2539;52.568;13.364;2022-10-22T03:01:39;26.00;;;18.70;;
5040;SDS011;2539;52.568;13.364;2022-10-22T03:04:05;21.53;;;18.47;;
5040;SDS011;2539;52.568;13.364;2022-10-22T03:06:31;20.80;;;17.50;;
5040;SDS011;2539;52.568;13.364;2022-10-22T03:08:57;23.80;;;18.33;;
5040;SDS011;2539;52.568;13.364;2022-10-22T03:11:22;23.57;;;18.87;;
5040;SDS011;2539;52.568;13.364;2022-10-22T03:13:49;22.57;;;19.23;;
5040;SDS011;2539;52.568;13.364;2022-10-22T03:16:15;25.60;;;19.83;;
5040;SDS011;2539;52.568;13.364;2022-10-22T03:18:42;23.53;;;18.87;;
5040;SDS011;2539;52.568;13.364;2022-10-22T03:23:39;22.43;;;18.03;;
5040;SDS011;2539;52.568;13.364;2022-10-22T03:26:06;22.97;;;17.53;;
5040;SDS011;2539;52.568;13.364;2022-10-22T03:28:34;21.97;;;16.53;;
5040;SDS011;2539;52.568;13.364;2022-10-22T03:31:01;22.20;;;17.93;;
5040;SDS011;2539;52.568;13.364;2022-10-22T03:33:28;24.17;;;18.37;;
5040;SDS011;2539;52.568;13.364;2022-10-22T03:35:54;22.93;;;18.70;;
5040;SDS011;2539;52.568;13.364;2022-10-22T03:38:20;21.80;;;17.37;;
5040;SDS011;2539;52.568;13.364;2022-10-22T03:40:47;21.90;;;19.30;;
5040;SDS011;2539;52.568;13.364;2022-10-22T03:43:14;25.67;;;21.57;;
5040;SDS011;2539;52.568;13.364;2022-10-22T03:45:41;24.87;;;20.03;;
5040;SDS011;2539;52.568;13.364;2022-10-22T03:48:07;25.97;;;19.67;;
5040;SDS011;2539;52.568;13.364;2022-10-22T03:50:34;22.70;;;19.07;;
5040;SDS011;2539;52.568;13.364;2022-10-22T03:53:00;21.70;;;17.27;;
5040;SDS011;2539;52.568;13.364;2022-10-22T03:55:26;25.50;;;18.00;;
5040;SDS011;2539;52.568;13.364;2022-10-22T03:57:53;30.20;;;18.97;;
5040;SDS011;2539;52.568;13.364;2022-10-22T04:00:19;23.53;;;18.50;;
5040;SDS011;2539;52.568;13.364;2022-10-22T04:02:46;21.57;;;18.00;;
5040;SDS011;2539;52.568;13.364;2022-10-22T04:05:12;25.27;;;19.40;;
5040;SDS011;2539;52.568;13.364;2022-10-22T04:07:39;22.13;;;17.40;;
5040;SDS011;2539;52.568;13.364;2022-10-22T04:10:05;25.57;;;18.10;;
5040;SDS011;2539;52.568;13.364;2022-10-22T04:12:30;21.83;;;18.40;;
5040;SDS011;2539;52.568;13.364;2022-10-22T04:14:56;20.97;;;18.07;;
5040;SDS011;2539;52.568;13.364;2022-10-22T04:17:22;20.60;;;17.97;;
5040;SDS011;2539;52.568;13.364;2022-10-22T04:19:48;23.30;;;18.33;;
5040;SDS011;2539;52.568;13.364;2022-10-22T04:22:15;21.23;;;17.90;;
5040;SDS011;2539;52.568;13.364;2022-10-22T04:24:40;21.27;;;17.60;;
5040;SDS011;2539;52.568;13.364;2022-10-22T04:27:06;24.03;;;18.07;;
5040;SDS011;2539;52.568;13.364;2022-10-22T04:29:31;22.37;;;17.20;;
5040;SDS011;2539;52.568;13.364;2022-10-22T04:31:57;26.17;;;18.80;;
5040;SDS011;2539;52.568;13.364;2022-10-22T04:34:25;22.80;;;17.87;;
5040;SDS011;2539;52.568;13.364;2022-10-22T04:36:53;19.67;;;16.93;;
5040;SDS011;2539;52.568;13.364;2022-10-22T04:39:19;21.57;;;17.30;;
5040;SDS011;2539;52.568;13.364;2022-10-22T04:41:46;19.77;;;17.33;;
5040;SDS011;2539;52.568;13.364;2022-10-22T04:44:12;20.00;;;17.80;;
5040;SDS011;2539;52.568;13.364;2022-10-22T04:46:39;23.83;;;18.53;;
5040;SDS011;2539;52.568;13.364;2022-10-22T04:49:05;22.60;;;17.87;;
5040;SDS011;2539;52.568;13.364;2022-10-22T04:51:31;21.87;;;18.20;;
5040;SDS011;2539;52.568;13.364;2022-10-22T04:53:58;19.77;;;17.67;;
5040;SDS011;2539;52.568;13.364;2022-10-22T04:56:25;22.87;;;17.03;;
5040;SDS011;2539;52.568;13.364;2022-10-22T04:58:54;20.87;;;17.70;;
5040;SDS011;2539;52.568;13.364;2022-10-22T05:01:26;22.43;;;17.83;;
5040;SDS011;2539;52.568;13.364;2022-10-22T05:03:55;19.13;;;17.10;;
5040;SDS011;2539;52.568;13.364;2022-10-22T05:06:22;19.80;;;16.70;;
5040;SDS011;2539;52.568;13.364;2022-10-22T05:08:59;18.87;;;16.87;;
5040;SDS011;2539;52.568;13.364;2022-10-22T05:11:29;19.13;;;16.50;;
5040;SDS011;2539;52.568;13.364;2022-10-22T05:13:59;18.90;;;16.90;;
5040;SDS011;2539;52.568;13.364;2022-10-22T05:16:27;22.80;;;17.37;;
5040;SDS011;2539;52.568;13.364;2022-10-22T05:18:54;22.57;;;17.40;;
5040;SDS011;2539;52.568;13.364;2022-10-22T05:21:22;20.93;;;17.47;;
5040;SDS011;2539;52.568;13.364;2022-10-22T05:23:49;21.33;;;17.10;;
5040;SDS011;2539;52.568;13.364;2022-10-22T05:26:19;19.30;;;16.43;;
5040;SDS011;2539;52.568;13.364;2022-10-22T05:28:47;20.30;;;18.20;;
5040;SDS011;2539;52.568;13.364;2022-10-22T05:31:15;24.43;;;18.30;;
5040;SDS011;2539;52.568;13.364;2022-10-22T05:33:42;20.13;;;17.40;;
5040;SDS011;2539;52.568;13.364;2022-10-22T05:36:11;23.63;;;18.40;;
5040;SDS011;2539;52.568;13.364;2022-10-22T05:38:38;23.20;;;17.80;;
5040;SDS011;2539;52.568;13.364;2022-10-22T05:41:08;21.90;;;18.37;;
5040;SDS011;2539;52.568;13.364;2022-10-22T05:43:35;24.07;;;18.47;;
5040;SDS011;2539;52.568;13.364;2022-10-22T05:46:08;21.67;;;17.90;;
5040;SDS011;2539;52.568;13.364;2022-10-22T05:48:37;20.43;;;17.37;;
5040;SDS011;2539;52.568;13.364;2022-10-22T05:51:05;20.40;;;17.20;;
5040;SDS011;2539;52.568;13.364;2022-10-22T05:53:39;22.90;;;18.07;;
5040;SDS011;2539;52.568;13.364;2022-10-22T05:56:08;24.40;;;18.27;;
5040;SDS011;2539;52.568;13.364;2022-10-22T05:58:37;23.03;;;18.80;;
5040;SDS011;2539;52.568;13.364;2022-10-22T06:01:04;23.20;;;18.70;;
5040;SDS011;2539;52.568;13.364;2022-10-22T06:03:37;24.00;;;18.40;;
5040;SDS011;2539;52.568;13.364;2022-10-22T06:06:04;28.60;;;18.50;;
5040;SDS011;2539;52.568;13.364;2022-10-22T06:08:49;21.30;;;17.43;;
5040;SDS011;2539;52.568;13.364;2022-10-22T06:11:17;23.23;;;17.97;;
5040;SDS011;2539;52.568;13.364;2022-10-22T06:13:45;21.60;;;17.20;;
5040;SDS011;2539;52.568;13.364;2022-10-22T06:16:12;19.77;;;17.00;;
5040;SDS011;2539;52.568;13.364;2022-10-22T06:18:38;23.03;;;17.40;;
5040;SDS011;2539;52.568;13.364;2022-10-22T06:21:08;20.87;;;17.90;;
5040;SDS011;2539;52.568;13.364;2022-10-22T06:23:37;24.80;;;19.20;;
5040;SDS011;2539;52.568;13.364;2022-10-22T06:26:04;20.77;;;18.37;;
5040;SDS011;2539;52.568;13.364;2022-10-22T06:28:32;21.90;;;16.83;;
5040;SDS011;2539;52.568;13.364;2022-10-22T06:31:00;22.20;;;17.40;;
5040;SDS011;2539;52.568;13.364;2022-10-22T06:33:27;23.87;;;17.90;;
5040;SDS011;2539;52.568;13.364;2022-10-22T06:35:54;19.20;;;16.93;;
5040;SDS011;2539;52.568;13.364;2022-10-22T06:38:28;19.47;;;16.80;;
5040;SDS011;2539;52.568;13.364;2022-10-22T06:40:53;24.30;;;18.03;;
5040;SDS011;2539;52.568;13.364;2022-10-22T06:43:19;20.50;;;17.70;;
5040;SDS011;2539;52.568;13.364;2022-10-22T06:45:45;21.23;;;18.43;;
5040;SDS011;2539;52.568;13.364;2022-10-22T06:48:11;22.50;;;18.70;;
5040;SDS011;2539;52.568;13.364;2022-10-22T06:50:37;21.57;;;18.00;;
5040;SDS011;2539;52.568;13.364;2022-10-22T06:53:04;19.27;;;17.23;;
5040;SDS011;2539;52.568;13.364;2022-10-22T06:55:30;18.23;;;16.33;;
5040;SDS011;2539;52.568;13.364;2022-10-22T06:57:56;21.03;;;16.70;;
5040;SDS011;2539;52.568;13.364;2022-10-22T07:00:21;21.37;;;18.50;;
5040;SDS011;2539;52.568;13.364;2022-10-22T07:02:51;19.13;;;16.80;;
5040;SDS011;2539;52.568;13.364;2022-10-22T07:05:17;20.40;;;16.17;;
5040;SDS011;2539;52.568;13.364;2022-10-22T07:07:44;17.03;;;15.23;;
5040;SDS011;2539;52.568;13.364;2022-10-22T07:10:10;18.67;;;16.23;;
5040;SDS011;2539;52.568;13.364;2022-10-22T07:12:36;19.20;;;14.20;;
5040;SDS011;2539;52.568;13.364;2022-10-22T07:15:02;16.77;;;14.40;;
5040;SDS011;2539;52.568;13.364;2022-10-22T07:17:28;20.27;;;15.07;;
5040;SDS011;2539;52.568;13.364;2022-10-22T07:19:53;16.77;;;15.07;;
5040;SDS011;2539;52.568;13.364;2022-10-22T07:22:20;19.27;;;15.10;;
5040;SDS011;2539;52.568;13.364;2022-10-22T07:24:46;15.13;;;13.53;;
5040;SDS011;2539;52.568;13.364;2022-10-22T07:27:12;17.93;;;14.33;;
5040;SDS011;2539;52.568;13.364;2022-10-22T07:29:39;16.63;;;14.83;;
5040;SDS011;2539;52.568;13.364;2022-10-22T07:32:04;19.13;;;13.80;;
5040;SDS011;2539;52.568;13.364;2022-10-22T07:34:30;16.17;;;14.10;;
5040;SDS011;2539;52.568;13.364;2022-10-22T07:36:56;15.53;;;13.77;;
5040;SDS011;2539;52.568;13.364;2022-10-22T07:39:22;16.73;;;12.73;;
5040;SDS011;2539;52.568;13.364;2022-10-22T07:41:50;17.97;;;14.23;;
5040;SDS011;2539;52.568;13.364;2022-10-22T07:44:17;15.20;;;13.10;;
5040;SDS011;2539;52.568;13.364;2022-10-22T07:46:43;15.90;;;14.20;;
5040;SDS011;2539;52.568;13.364;2022-10-22T07:49:09;16.33;;;13.17;;
5040;SDS011;2539;52.568;13.364;2022-10-22T07:51:36;14.43;;;12.90;;
5040;SDS011;2539;52.568;13.364;2022-10-22T07:54:02;15.70;;;14.00;;
5040;SDS011;2539;52.568;13.364;2022-10-22T07:56:29;20.40;;;15.57;;
5040;SDS011;2539;52.568;13.364;2022-10-22T07:58:55;16.20;;;14.60;;
5040;SDS011;2539;52.568;13.364;2022-10-22T08:01:21;16.90;;;13.80;;
5040;SDS011;2539;52.568;13.364;2022-10-22T08:03:48;18.93;;;15.10;;
5040;SDS011;2539;52.568;13.364;2022-10-22T08:06:14;16.90;;;15.10;;
5040;SDS011;2539;52.568;13.364;2022-10-22T08:08:40;16.13;;;14.63;;
5040;SDS011;2539;52.568;13.364;2022-10-22T08:11:08;14.50;;;13.00;;
5040;SDS011;2539;52.568;13.364;2022-10-22T08:13:34;13.07;;;11.70;;
5040;SDS011;2539;52.568;13.364;2022-10-22T08:16:00;18.10;;;13.33;;
5040;SDS011;2539;52.568;13.364;2022-10-22T08:18:27;15.70;;;13.03;;
5040;SDS011;2539;52.568;13.364;2022-10-22T08:20:54;15.30;;;13.33;;
5040;SDS011;2539;52.568;13.364;2022-10-22T08:23:20;14.97;;;13.47;;
5040;SDS011;2539;52.568;13.364;2022-10-22T08:25:46;15.37;;;13.63;;
5040;SDS011;2539;52.568;13.364;2022-10-22T08:28:13;15.02;;;13.20;;
5040;SDS011;2539;52.568;13.364;2022-10-22T08:30:39;16.00;;;14.40;;
5040;SDS011;2539;52.568;13.364;2022-10-22T08:33:06;17.40;;;15.47;;
5040;SDS011;2539;52.568;13.364;2022-10-22T08:35:32;13.97;;;12.53;;
5040;SDS011;2539;52.568;13.364;2022-10-22T08:37:58;14.27;;;12.83;;
5040;SDS011;2539;52.568;13.364;2022-10-22T08:40:29;15.83;;;13.37;;
5040;SDS011;2539;52.568;13.364;2022-10-22T08:43:13;13.83;;;12.53;;
5040;SDS011;2539;52.568;13.364;2022-10-22T08:46:13;14.40;;;12.50;;
5040;SDS011;2539;52.568;13.364;2022-10-22T08:48:54;15.13;;;11.03;;
5040;SDS011;2539;52.568;13.364;2022-10-22T08:51:25;13.83;;;11.53;;
5040;SDS011;2539;52.568;13.364;2022-10-22T08:57:02;14.03;;;12.10;;
5040;SDS011;2539;52.568;13.364;2022-10-22T08:59:49;13.80;;;11.33;;
5040;SDS011;2539;52.568;13.364;2022-10-22T09:05:47;12.90;;;10.97;;
5040;SDS011;2539;52.568;13.364;2022-10-22T09:08:19;12.30;;;11.00;;
5040;SDS011;2539;52.568;13.364;2022-10-22T09:10:47;12.90;;;11.47;;
5040;SDS011;2539;52.568;13.364;2022-10-22T09:13:17;14.27;;;11.30;;
5040;SDS011;2539;52.568;13.364;2022-10-22T09:15:54;14.83;;;13.33;;
5040;SDS011;2539;52.568;13.364;2022-10-22T09:18:28;13.70;;;11.83;;
5040;SDS011;2539;52.568;13.364;2022-10-22T09:21:28;12.70;;;11.00;;
5040;SDS011;2539;52.568;13.364;2022-10-22T09:23:59;12.73;;;11.47;;
5040;SDS011;2539;52.568;13.364;2022-10-22T09:26:36;14.03;;;12.50;;
5040;SDS011;2539;52.568;13.364;2022-10-22T09:29:04;13.90;;;12.50;;
5040;SDS011;2539;52.568;13.364;2022-10-22T09:31:31;13.10;;;11.40;;
5040;SDS011;2539;52.568;13.364;2022-10-22T09:33:58;14.43;;;12.00;;
5040;SDS011;2539;52.568;13.364;2022-10-22T09:36:30;13.07;;;11.63;;
5040;SDS011;2539;52.568;13.364;2022-10-22T09:38:56;14.10;;;11.50;;
5040;SDS011;2539;52.568;13.364;2022-10-22T09:41:23;12.30;;;10.90;;
5040;SDS011;2539;52.568;13.364;2022-10-22T09:43:54;14.93;;;11.43;;
5040;SDS011;2539;52.568;13.364;2022-10-22T09:46:22;13.33;;;10.67;;
5040;SDS011;2539;52.568;13.364;2022-10-22T09:51:35;12.10;;;10.90;;
5040;SDS011;2539;52.568;13.364;2022-10-22T09:54:36;14.97;;;10.77;;
5040;SDS011;2539;52.568;13.364;2022-10-22T09:59:42;17.03;;;10.83;;
5040;SDS011;2539;52.568;13.364;2022-10-22T10:02:10;12.73;;;11.53;;
5040;SDS011;2539;52.568;13.364;2022-10-22T10:04:48;13.10;;;11.23;;
5040;SDS011;2539;52.568;13.364;2022-10-22T10:07:17;13.13;;;10.40;;
5040;SDS011;2539;52.568;13.364;2022-10-22T10:09:45;16.47;;;12.20;;
5040;SDS011;2539;52.568;13.364;2022-10-22T10:12:15;12.27;;;10.87;;
5040;SDS011;2539;52.568;13.364;2022-10-22T10:15:07;14.37;;;12.00;;
5040;SDS011;2539;52.568;13.364;2022-10-22T10:17:51;16.40;;;12.30;;
5040;SDS011;2539;52.568;13.364;2022-10-22T10:20:25;16.03;;;12.90;;
5040;SDS011;2539;52.568;13.364;2022-10-22T10:23:07;22.60;;;18.40;;
5040;SDS011;2539;52.568;13.364;2022-10-22T10:28:52;13.97;;;12.57;;
5040;SDS011;2539;52.568;13.364;2022-10-22T10:31:38;15.73;;;11.80;;
5040;SDS011;2539;52.568;13.364;2022-10-22T10:40:03;13.87;;;12.00;;
5040;SDS011;2539;52.568;13.364;2022-10-22T10:42:48;15.67;;;12.40;;
5040;SDS011;2539;52.568;13.364;2022-10-22T10:45:18;15.33;;;13.83;;
5040;SDS011;2539;52.568;13.364;2022-10-22T10:48:10;13.60;;;12.30;;
5040;SDS011;2539;52.568;13.364;2022-10-22T10:56:27;14.70;;;12.53;;
5040;SDS011;2539;52.568;13.364;2022-10-22T10:59:16;19.90;;;13.30;;
5040;SDS011;2539;52.568;13.364;2022-10-22T11:02:01;16.80;;;12.03;;
5040;SDS011;2539;52.568;13.364;2022-10-22T11:13:21;18.23;;;14.43;;
5040;SDS011;2539;52.568;13.364;2022-10-22T11:16:00;16.63;;;14.87;;
5040;SDS011;2539;52.568;13.364;2022-10-22T11:18:34;19.10;;;14.40;;
5040;SDS011;2539;52.568;13.364;2022-10-22T11:21:20;19.30;;;13.17;;
5040;SDS011;2539;52.568;13.364;2022-10-22T11:29:42;20.40;;;12.80;;
5040;SDS011;2539;52.568;13.364;2022-10-22T11:32:13;18.47;;;13.33;;
5040;SDS011;2539;52.568;13.364;2022-10-22T11:34:44;14.60;;;13.10;;
5040;SDS011;2539;52.568;13.364;2022-10-22T11:37:13;16.53;;;13.63;;
5040;SDS011;2539;52.568;13.364;2022-10-22T11:39:46;14.57;;;12.93;;
5040;SDS011;2539;52.568;13.364;2022-10-22T11:42:19;15.37;;;13.50;;
5040;SDS011;2539;52.568;13.364;2022-10-22T11:44:48;19.97;;;13.90;;
5040;SDS011;2539;52.568;13.364;2022-10-22T11:47:28;18.83;;;13.70;;
5040;SDS011;2539;52.568;13.364;2022-10-22T11:50:01;17.53;;;15.30;;
5040;SDS011;2539;52.568;13.364;2022-10-22T11:52:49;14.40;;;12.93;;
5040;SDS011;2539;52.568;13.364;2022-10-22T11:55:31;16.67;;;12.13;;
5040;SDS011;2539;52.568;13.364;2022-10-22T12:16:24;16.77;;;11.90;;
5040;SDS011;2539;52.568;13.364;2022-10-22T12:19:00;14.93;;;12.40;;
5040;SDS011;2539;52.568;13.364;2022-10-22T12:21:41;14.83;;;10.87;;
5040;SDS011;2539;52.568;13.364;2022-10-22T12:24:11;13.67;;;9.73;;
5040;SDS011;2539;52.568;13.364;2022-10-22T12:26:40;12.97;;;10.90;;
5040;SDS011;2539;52.568;13.364;2022-10-22T12:29:09;9.77;;;8.50;;
5040;SDS011;2539;52.568;13.364;2022-10-22T12:31:38;14.33;;;9.17;;
5040;SDS011;2539;52.568;13.364;2022-10-22T12:34:06;15.27;;;9.73;;
5040;SDS011;2539;52.568;13.364;2022-10-22T12:36:37;14.80;;;12.47;;
5040;SDS011;2539;52.568;13.364;2022-10-22T12:39:08;9.87;;;7.23;;
5040;SDS011;2539;52.568;13.364;2022-10-22T12:41:37;9.47;;;7.00;;
5040;SDS011;2539;52.568;13.364;2022-10-22T12:44:04;7.87;;;6.03;;
5040;SDS011;2539;52.568;13.364;2022-10-22T12:46:31;8.90;;;6.70;;
5040;SDS011;2539;52.568;13.364;2022-10-22T12:49:01;9.10;;;6.77;;
5040;SDS011;2539;52.568;13.364;2022-10-22T12:51:30;8.73;;;6.20;;
5040;SDS011;2539;52.568;13.364;2022-10-22T12:54:01;21.47;;;19.23;;
5040;SDS011;2539;52.568;13.364;2022-10-22T12:56:35;10.20;;;6.70;;
5040;SDS011;2539;52.568;13.364;2022-10-22T12:59:04;8.70;;;5.77;;
5040;SDS011;2539;52.568;13.364;2022-10-22T13:01:44;13.87;;;7.53;;
5040;SDS011;2539;52.568;13.364;2022-10-22T13:06:45;9.37;;;8.33;;
5040;SDS011;2539;52.568;13.364;2022-10-22T13:09:16;7.33;;;5.83;;
5040;SDS011;2539;52.568;13.364;2022-10-22T13:11:54;12.67;;;10.57;;
5040;SDS011;2539;52.568;13.364;2022-10-22T13:14:28;13.53;;;8.07;;
5040;SDS011;2539;52.568;13.364;2022-10-22T13:17:04;9.90;;;4.80;;
5040;SDS011;2539;52.568;13.364;2022-10-22T13:22:36;7.97;;;4.63;;
5040;SDS011;2539;52.568;13.364;2022-10-22T13:25:17;6.63;;;4.00;;
5040;SDS011;2539;52.568;13.364;2022-10-22T13:27:47;10.50;;;5.53;;
5040;SDS011;2539;52.568;13.364;2022-10-22T13:30:37;8.10;;;3.93;;
5040;SDS011;2539;52.568;13.364;2022-10-22T13:33:05;16.40;;;12.03;;
5040;SDS011;2539;52.568;13.364;2022-10-22T13:35:45;7.53;;;4.13;;
5040;SDS011;2539;52.568;13.364;2022-10-22T13:38:13;10.77;;;7.50;;
5040;SDS011;2539;52.568;13.364;2022-10-22T13:40:43;8.63;;;4.60;;
5040;SDS011;2539;52.568;13.364;2022-10-22T13:43:09;9.63;;;6.93;;
5040;SDS011;2539;52.568;13.364;2022-10-22T13:45:35;6.57;;;4.83;;
5040;SDS011;2539;52.568;13.364;2022-10-22T13:48:02;8.27;;;4.53;;
5040;SDS011;2539;52.568;13.364;2022-10-22T13:50:28;7.67;;;3.70;;
5040;SDS011;2539;52.568;13.364;2022-10-22T13:52:55;6.93;;;4.47;;
5040;SDS011;2539;52.568;13.364;2022-10-22T13:55:26;6.70;;;4.07;;
5040;SDS011;2539;52.568;13.364;2022-10-22T13:57:55;7.17;;;3.60;;
5040;SDS011;2539;52.568;13.364;2022-10-22T14:00:28;5.30;;;3.47;;
5040;SDS011;2539;52.568;13.364;2022-10-22T14:02:55;8.40;;;4.10;;
5040;SDS011;2539;52.568;13.364;2022-10-22T14:05:23;7.23;;;4.80;;
5040;SDS011;2539;52.568;13.364;2022-10-22T14:07:50;7.47;;;4.20;;
5040;SDS011;2539;52.568;13.364;2022-10-22T14:10:21;9.60;;;5.63;;
5040;SDS011;2539;52.568;13.364;2022-10-22T14:12:48;9.27;;;7.27;;
5040;SDS011;2539;52.568;13.364;2022-10-22T14:15:16;10.90;;;5.33;;
5040;SDS011;2539;52.568;13.364;2022-10-22T14:17:44;7.10;;;4.43;;
5040;SDS011;2539;52.568;13.364;2022-10-22T14:20:15;15.77;;;9.60;;
5040;SDS011;2539;52.568;13.364;2022-10-22T14:22:47;10.00;;;4.47;;
5040;SDS011;2539;52.568;13.364;2022-10-22T14:25:16;5.90;;;3.60;;
5040;SDS011;2539;52.568;13.364;2022-10-22T14:27:44;10.70;;;4.30;;
5040;SDS011;2539;52.568;13.364;2022-10-22T14:30:15;10.20;;;3.97;;
5040;SDS011;2539;52.568;13.364;2022-10-22T14:32:45;9.63;;;4.03;;
5040;SDS011;2539;52.568;13.364;2022-10-22T14:35:14;11.30;;;6.70;;
5040;SDS011;2539;52.568;13.364;2022-10-22T14:37:43;7.87;;;3.80;;
5040;SDS011;2539;52.568;13.364;2022-10-22T14:40:11;7.87;;;5.20;;
5040;SDS011;2539;52.568;13.364;2022-10-22T14:42:40;8.10;;;4.10;;
5040;SDS011;2539;52.568;13.364;2022-10-22T14:45:13;9.73;;;3.57;;
5040;SDS011;2539;52.568;13.364;2022-10-22T14:47:46;9.13;;;3.70;;
5040;SDS011;2539;52.568;13.364;2022-10-22T14:50:13;5.40;;;3.70;;
5040;SDS011;2539;52.568;13.364;2022-10-22T14:52:40;11.80;;;4.63;;
5040;SDS011;2539;52.568;13.364;2022-10-22T14:55:08;6.23;;;3.70;;
5040;SDS011;2539;52.568;13.364;2022-10-22T14:57:35;9.37;;;3.27;;
5040;SDS011;2539;52.568;13.364;2022-10-22T15:00:05;7.90;;;3.27;;
5040;SDS011;2539;52.568;13.364;2022-10-22T15:02:32;10.87;;;3.70;;
5040;SDS011;2539;52.568;13.364;2022-10-22T15:04:59;6.40;;;3.33;;
5040;SDS011;2539;52.568;13.364;2022-10-22T15:07:25;8.63;;;4.23;;
5040;SDS011;2539;52.568;13.364;2022-10-22T15:09:52;9.10;;;3.43;;
5040;SDS011;2539;52.568;13.364;2022-10-22T15:12:18;11.73;;;3.83;;
5040;SDS011;2539;52.568;13.364;2022-10-22T15:14:45;6.93;;;4.67;;
5040;SDS011;2539;52.568;13.364;2022-10-22T15:17:13;9.20;;;4.47;;
5040;SDS011;2539;52.568;13.364;2022-10-22T15:19:40;10.90;;;3.87;;
5040;SDS011;2539;52.568;13.364;2022-10-22T15:22:08;12.80;;;4.47;;
5040;SDS011;2539;52.568;13.364;2022-10-22T15:24:35;7.30;;;3.80;;
5040;SDS011;2539;52.568;13.364;2022-10-22T15:27:02;7.13;;;3.70;;
5040;SDS011;2539;52.568;13.364;2022-10-22T15:29:29;9.13;;;4.23;;
5040;SDS011;2539;52.568;13.364;2022-10-22T15:31:56;13.77;;;5.73;;
5040;SDS011;2539;52.568;13.364;2022-10-22T15:34:24;10.73;;;5.40;;
5040;SDS011;2539;52.568;13.364;2022-10-22T15:36:55;18.70;;;13.13;;
5040;SDS011;2539;52.568;13.364;2022-10-22T15:39:23;10.40;;;5.30;;
5040;SDS011;2539;52.568;13.364;2022-10-22T15:41:50;11.27;;;6.00;;
5040;SDS011;2539;52.568;13.364;2022-10-22T15:44:18;9.33;;;5.80;;
5040;SDS011;2539;52.568;13.364;2022-10-22T15:46:45;21.43;;;6.07;;
5040;SDS011;2539;52.568;13.364;2022-10-22T15:49:12;8.27;;;5.77;;
5040;SDS011;2539;52.568;13.364;2022-10-22T15:51:38;8.80;;;5.27;;
5040;SDS011;2539;52.568;13.364;2022-10-22T15:54:05;8.60;;;4.50;;
5040;SDS011;2539;52.568;13.364;2022-10-22T15:56:31;15.03;;;5.03;;
5040;SDS011;2539;52.568;13.364;2022-10-22T15:58:59;12.37;;;5.60;;
5040;SDS011;2539;52.568;13.364;2022-10-22T16:01:30;9.33;;;5.17;;
5040;SDS011;2539;52.568;13.364;2022-10-22T16:03:58;11.70;;;5.63;;
5040;SDS011;2539;52.568;13.364;2022-10-22T16:06:25;9.90;;;5.63;;
5040;SDS011;2539;52.568;13.364;2022-10-22T16:08:52;12.20;;;5.90;;
5040;SDS011;2539;52.568;13.364;2022-10-22T16:11:20;9.43;;;5.93;;
5040;SDS011;2539;52.568;13.364;2022-10-22T16:13:47;13.47;;;7.13;;
5040;SDS011;2539;52.568;13.364;2022-10-22T16:16:17;12.50;;;6.33;;
5040;SDS011;2539;52.568;13.364;2022-10-22T16:18:43;10.90;;;6.80;;
5040;SDS011;2539;52.568;13.364;2022-10-22T16:21:13;12.60;;;7.13;;
5040;SDS011;2539;52.568;13.364;2022-10-22T16:23:42;11.37;;;6.37;;
5040;SDS011;2539;52.568;13.364;2022-10-22T16:26:08;17.50;;;6.70;;
5040;SDS011;2539;52.568;13.364;2022-10-22T16:28:35;10.43;;;6.70;;
5040;SDS011;2539;52.568;13.364;2022-10-22T16:31:02;17.60;;;7.60;;
5040;SDS011;2539;52.568;13.364;2022-10-22T16:33:30;15.73;;;8.13;;
5040;SDS011;2539;52.568;13.364;2022-10-22T16:35:58;11.23;;;7.20;;